San Francisco, California
Traffic Map
Current Weather Conditions
San Francisco, California
Scattered Clouds
Scattered Clouds
65°
Feels Like: 65°
Wind Chill: 65° Ceiling: Unl
Heat Index: 65° Visibility: 10mi
Dew Point: 44° Wind: 23mph
Humidity: 47% Direction: 270° (W)
Pressure: 30.04in Gusts: 0mph
Raw Report DataKSFO 282156Z 27020KT 10SM SCT200 18/07 A3004 RMK AO2 SLP173 T01830067
Traffic Incident Summary
Active as of:
Severity:
Category:
InformationThere was an issue retrieving the traffic information for this location. Please try a different location or try again shortly.
Advertisements
Track Severe Weather on mobile